sensor_id;sensor_type;location;lat;lon;timestamp;P1;durP1;ratioP1;P2;durP2;ratioP2
7446;SDS011;3765;47.962;7.952;2022-11-15T00:00:06;12.50;;;3.90;;
7446;SDS011;3765;47.962;7.952;2022-11-15T00:02:35;10.03;;;3.50;;
7446;SDS011;3765;47.962;7.952;2022-11-15T00:05:04;8.93;;;3.43;;
7446;SDS011;3765;47.962;7.952;2022-11-15T00:07:32;9.13;;;3.93;;
7446;SDS011;3765;47.962;7.952;2022-11-15T00:10:20;9.27;;;3.77;;
7446;SDS011;3765;47.962;7.952;2022-11-15T00:12:50;11.27;;;4.40;;
7446;SDS011;3765;47.962;7.952;2022-11-15T00:15:20;10.33;;;3.87;;
7446;SDS011;3765;47.962;7.952;2022-11-15T00:17:48;11.37;;;4.43;;
7446;SDS011;3765;47.962;7.952;2022-11-15T00:20:17;8.37;;;3.50;;
7446;SDS011;3765;47.962;7.952;2022-11-15T00:22:45;11.27;;;3.30;;
7446;SDS011;3765;47.962;7.952;2022-11-15T00:25:13;9.30;;;3.23;;
7446;SDS011;3765;47.962;7.952;2022-11-15T00:27:41;13.23;;;3.73;;
7446;SDS011;3765;47.962;7.952;2022-11-15T00:30:13;9.60;;;3.43;;
7446;SDS011;3765;47.962;7.952;2022-11-15T00:32:41;11.30;;;4.63;;
7446;SDS011;3765;47.962;7.952;2022-11-15T00:35:09;11.03;;;3.57;;
7446;SDS011;3765;47.962;7.952;2022-11-15T00:37:37;12.90;;;3.23;;
7446;SDS011;3765;47.962;7.952;2022-11-15T00:40:06;8.20;;;3.37;;
7446;SDS011;3765;47.962;7.952;2022-11-15T00:42:35;8.63;;;3.30;;
7446;SDS011;3765;47.962;7.952;2022-11-15T00:45:03;11.57;;;3.60;;
7446;SDS011;3765;47.962;7.952;2022-11-15T00:47:34;8.20;;;3.00;;
7446;SDS011;3765;47.962;7.952;2022-11-15T00:50:02;12.07;;;3.60;;
7446;SDS011;3765;47.962;7.952;2022-11-15T00:52:31;8.10;;;2.83;;
7446;SDS011;3765;47.962;7.952;2022-11-15T00:54:59;7.43;;;2.80;;
7446;SDS011;3765;47.962;7.952;2022-11-15T00:57:27;8.70;;;3.03;;
7446;SDS011;3765;47.962;7.952;2022-11-15T00:59:55;7.57;;;2.83;;
7446;SDS011;3765;47.962;7.952;2022-11-15T01:02:24;8.60;;;2.87;;
7446;SDS011;3765;47.962;7.952;2022-11-15T01:04:53;8.03;;;2.70;;
7446;SDS011;3765;47.962;7.952;2022-11-15T01:07:21;10.63;;;3.20;;
7446;SDS011;3765;47.962;7.952;2022-11-15T01:09:50;11.47;;;3.40;;
7446;SDS011;3765;47.962;7.952;2022-11-15T01:12:18;7.57;;;2.40;;
7446;SDS011;3765;47.962;7.952;2022-11-15T01:14:46;6.30;;;2.43;;
7446;SDS011;3765;47.962;7.952;2022-11-15T01:17:14;7.03;;;2.57;;
7446;SDS011;3765;47.962;7.952;2022-11-15T01:19:42;8.50;;;2.90;;
7446;SDS011;3765;47.962;7.952;2022-11-15T01:22:12;9.03;;;2.93;;
7446;SDS011;3765;47.962;7.952;2022-11-15T01:24:40;10.40;;;2.90;;
7446;SDS011;3765;47.962;7.952;2022-11-15T01:27:08;11.73;;;2.50;;
7446;SDS011;3765;47.962;7.952;2022-11-15T01:29:36;9.30;;;2.70;;
7446;SDS011;3765;47.962;7.952;2022-11-15T01:32:05;7.60;;;2.70;;
7446;SDS011;3765;47.962;7.952;2022-11-15T01:34:33;9.20;;;2.50;;
7446;SDS011;3765;47.962;7.952;2022-11-15T01:37:01;7.57;;;2.50;;
7446;SDS011;3765;47.962;7.952;2022-11-15T01:39:31;11.23;;;2.80;;
7446;SDS011;3765;47.962;7.952;2022-11-15T01:41:59;7.60;;;2.80;;
7446;SDS011;3765;47.962;7.952;2022-11-15T01:47:15;10.43;;;3.13;;
7446;SDS011;3765;47.962;7.952;2022-11-15T01:49:47;8.03;;;2.40;;
7446;SDS011;3765;47.962;7.952;2022-11-15T01:52:21;10.13;;;2.83;;
7446;SDS011;3765;47.962;7.952;2022-11-15T01:54:55;7.00;;;2.50;;
7446;SDS011;3765;47.962;7.952;2022-11-15T01:57:28;7.83;;;2.30;;
7446;SDS011;3765;47.962;7.952;2022-11-15T01:59:56;7.60;;;3.00;;
7446;SDS011;3765;47.962;7.952;2022-11-15T02:02:28;7.67;;;2.43;;
7446;SDS011;3765;47.962;7.952;2022-11-15T02:04:56;6.43;;;2.30;;
7446;SDS011;3765;47.962;7.952;2022-11-15T02:07:24;9.07;;;2.60;;
7446;SDS011;3765;47.962;7.952;2022-11-15T02:09:55;7.07;;;2.37;;
7446;SDS011;3765;47.962;7.952;2022-11-15T02:12:31;6.60;;;2.10;;
7446;SDS011;3765;47.962;7.952;2022-11-15T02:14:59;20.83;;;3.10;;
7446;SDS011;3765;47.962;7.952;2022-11-15T02:17:32;7.30;;;2.37;;
7446;SDS011;3765;47.962;7.952;2022-11-15T02:23:23;8.40;;;2.57;;
7446;SDS011;3765;47.962;7.952;2022-11-15T02:26:21;7.77;;;2.20;;
7446;SDS011;3765;47.962;7.952;2022-11-15T02:29:14;6.87;;;2.60;;
7446;SDS011;3765;47.962;7.952;2022-11-15T02:31:55;7.27;;;2.60;;
7446;SDS011;3765;47.962;7.952;2022-11-15T02:34:32;11.80;;;2.77;;
7446;SDS011;3765;47.962;7.952;2022-11-15T02:37:11;7.00;;;2.13;;
7446;SDS011;3765;47.962;7.952;2022-11-15T02:39:46;7.23;;;2.57;;
7446;SDS011;3765;47.962;7.952;2022-11-15T02:42:19;7.67;;;2.63;;
7446;SDS011;3765;47.962;7.952;2022-11-15T02:45:10;6.70;;;2.37;;
7446;SDS011;3765;47.962;7.952;2022-11-15T02:47:45;6.30;;;2.30;;
7446;SDS011;3765;47.962;7.952;2022-11-15T02:50:18;10.77;;;2.63;;
7446;SDS011;3765;47.962;7.952;2022-11-15T02:52:51;6.27;;;2.10;;
7446;SDS011;3765;47.962;7.952;2022-11-15T02:55:26;8.07;;;2.63;;
7446;SDS011;3765;47.962;7.952;2022-11-15T02:58:03;6.93;;;2.57;;
7446;SDS011;3765;47.962;7.952;2022-11-15T03:00:46;8.90;;;3.27;;
7446;SDS011;3765;47.962;7.952;2022-11-15T03:03:25;7.43;;;2.70;;
7446;SDS011;3765;47.962;7.952;2022-11-15T03:06:04;8.40;;;3.03;;
7446;SDS011;3765;47.962;7.952;2022-11-15T03:08:43;6.60;;;2.40;;
7446;SDS011;3765;47.962;7.952;2022-11-15T03:11:17;20.30;;;4.00;;
7446;SDS011;3765;47.962;7.952;2022-11-15T03:13:50;7.60;;;2.90;;
7446;SDS011;3765;47.962;7.952;2022-11-15T03:16:25;9.80;;;2.57;;
7446;SDS011;3765;47.962;7.952;2022-11-15T03:18:59;7.33;;;3.00;;
7446;SDS011;3765;47.962;7.952;2022-11-15T03:21:31;7.77;;;2.63;;
7446;SDS011;3765;47.962;7.952;2022-11-15T03:24:02;10.03;;;3.27;;
7446;SDS011;3765;47.962;7.952;2022-11-15T03:26:33;8.10;;;3.03;;
7446;SDS011;3765;47.962;7.952;2022-11-15T03:29:04;8.03;;;2.97;;
7446;SDS011;3765;47.962;7.952;2022-11-15T03:31:47;7.90;;;2.80;;
7446;SDS011;3765;47.962;7.952;2022-11-15T03:34:25;10.70;;;2.70;;
7446;SDS011;3765;47.962;7.952;2022-11-15T03:36:57;10.80;;;3.10;;
7446;SDS011;3765;47.962;7.952;2022-11-15T03:39:25;9.20;;;2.90;;
7446;SDS011;3765;47.962;7.952;2022-11-15T03:41:56;12.73;;;2.43;;
7446;SDS011;3765;47.962;7.952;2022-11-15T03:44:34;13.20;;;3.60;;
7446;SDS011;3765;47.962;7.952;2022-11-15T03:47:09;12.70;;;2.90;;
7446;SDS011;3765;47.962;7.952;2022-11-15T03:49:45;9.23;;;2.70;;
7446;SDS011;3765;47.962;7.952;2022-11-15T03:52:20;7.27;;;2.70;;
7446;SDS011;3765;47.962;7.952;2022-11-15T03:54:49;12.20;;;3.00;;
7446;SDS011;3765;47.962;7.952;2022-11-15T03:57:20;8.20;;;2.80;;
7446;SDS011;3765;47.962;7.952;2022-11-15T03:59:48;17.70;;;3.10;;
7446;SDS011;3765;47.962;7.952;2022-11-15T04:02:16;7.90;;;2.70;;
7446;SDS011;3765;47.962;7.952;2022-11-15T04:04:46;11.40;;;2.83;;
7446;SDS011;3765;47.962;7.952;2022-11-15T04:07:14;11.07;;;2.70;;
7446;SDS011;3765;47.962;7.952;2022-11-15T04:09:43;7.30;;;2.77;;
7446;SDS011;3765;47.962;7.952;2022-11-15T04:12:29;7.07;;;2.40;;
7446;SDS011;3765;47.962;7.952;2022-11-15T04:15:01;8.30;;;2.60;;
7446;SDS011;3765;47.962;7.952;2022-11-15T04:17:37;9.50;;;2.33;;
7446;SDS011;3765;47.962;7.952;2022-11-15T04:20:09;8.50;;;3.00;;
7446;SDS011;3765;47.962;7.952;2022-11-15T04:22:56;8.00;;;2.83;;
7446;SDS011;3765;47.962;7.952;2022-11-15T04:25:43;10.70;;;3.10;;
7446;SDS011;3765;47.962;7.952;2022-11-15T04:28:12;8.00;;;3.50;;
7446;SDS011;3765;47.962;7.952;2022-11-15T04:30:40;7.60;;;3.50;;
7446;SDS011;3765;47.962;7.952;2022-11-15T04:33:08;11.57;;;3.90;;
7446;SDS011;3765;47.962;7.952;2022-11-15T04:35:38;10.10;;;4.47;;
7446;SDS011;3765;47.962;7.952;2022-11-15T04:38:07;10.10;;;3.90;;
7446;SDS011;3765;47.962;7.952;2022-11-15T04:40:35;9.47;;;3.43;;
7446;SDS011;3765;47.962;7.952;2022-11-15T04:43:04;9.00;;;3.57;;
7446;SDS011;3765;47.962;7.952;2022-11-15T04:45:32;10.43;;;4.03;;
7446;SDS011;3765;47.962;7.952;2022-11-15T04:48:02;8.63;;;3.50;;
7446;SDS011;3765;47.962;7.952;2022-11-15T04:50:31;18.33;;;3.40;;
7446;SDS011;3765;47.962;7.952;2022-11-15T04:53:00;9.83;;;4.00;;
7446;SDS011;3765;47.962;7.952;2022-11-15T04:55:28;8.23;;;3.13;;
7446;SDS011;3765;47.962;7.952;2022-11-15T04:57:57;10.47;;;3.20;;
7446;SDS011;3765;47.962;7.952;2022-11-15T05:00:27;11.60;;;3.27;;
7446;SDS011;3765;47.962;7.952;2022-11-15T05:02:56;8.10;;;3.00;;
7446;SDS011;3765;47.962;7.952;2022-11-15T05:05:42;6.80;;;2.63;;
7446;SDS011;3765;47.962;7.952;2022-11-15T05:08:11;7.33;;;2.67;;
7446;SDS011;3765;47.962;7.952;2022-11-15T05:10:39;9.30;;;2.70;;
7446;SDS011;3765;47.962;7.952;2022-11-15T05:13:08;11.50;;;4.10;;
7446;SDS011;3765;47.962;7.952;2022-11-15T05:15:37;7.70;;;3.27;;
7446;SDS011;3765;47.962;7.952;2022-11-15T05:18:05;11.30;;;3.90;;
7446;SDS011;3765;47.962;7.952;2022-11-15T05:20:33;8.60;;;3.30;;
7446;SDS011;3765;47.962;7.952;2022-11-15T05:23:01;9.83;;;3.50;;
7446;SDS011;3765;47.962;7.952;2022-11-15T05:25:31;9.53;;;3.10;;
7446;SDS011;3765;47.962;7.952;2022-11-15T05:27:59;7.30;;;2.60;;
7446;SDS011;3765;47.962;7.952;2022-11-15T05:30:27;7.43;;;2.70;;
7446;SDS011;3765;47.962;7.952;2022-11-15T05:32:55;17.70;;;3.57;;
7446;SDS011;3765;47.962;7.952;2022-11-15T05:35:25;7.87;;;3.10;;
7446;SDS011;3765;47.962;7.952;2022-11-15T05:37:57;9.80;;;3.23;;
7446;SDS011;3765;47.962;7.952;2022-11-15T05:40:26;7.27;;;3.27;;
7446;SDS011;3765;47.962;7.952;2022-11-15T05:42:56;8.00;;;2.73;;
7446;SDS011;3765;47.962;7.952;2022-11-15T05:45:25;7.20;;;2.70;;
7446;SDS011;3765;47.962;7.952;2022-11-15T05:47:53;9.13;;;3.27;;
7446;SDS011;3765;47.962;7.952;2022-11-15T05:50:23;11.33;;;3.40;;
7446;SDS011;3765;47.962;7.952;2022-11-15T05:52:51;9.93;;;3.70;;
7446;SDS011;3765;47.962;7.952;2022-11-15T05:55:27;10.10;;;3.60;;
7446;SDS011;3765;47.962;7.952;2022-11-15T05:57:57;12.17;;;4.07;;
7446;SDS011;3765;47.962;7.952;2022-11-15T06:00:25;8.70;;;3.80;;
7446;SDS011;3765;47.962;7.952;2022-11-15T06:02:53;7.40;;;3.40;;
7446;SDS011;3765;47.962;7.952;2022-11-15T06:05:21;10.50;;;4.50;;
7446;SDS011;3765;47.962;7.952;2022-11-15T06:07:50;35.63;;;16.30;;
7446;SDS011;3765;47.962;7.952;2022-11-15T06:10:18;26.80;;;11.47;;
7446;SDS011;3765;47.962;7.952;2022-11-15T06:12:46;13.77;;;6.30;;
7446;SDS011;3765;47.962;7.952;2022-11-15T06:15:16;16.70;;;6.47;;
7446;SDS011;3765;47.962;7.952;2022-11-15T06:17:44;124.57;;;54.07;;
7446;SDS011;3765;47.962;7.952;2022-11-15T06:20:12;62.27;;;30.47;;
7446;SDS011;3765;47.962;7.952;2022-11-15T06:22:40;67.50;;;31.20;;
7446;SDS011;3765;47.962;7.952;2022-11-15T06:25:08;20.20;;;11.63;;
7446;SDS011;3765;47.962;7.952;2022-11-15T06:27:37;20.03;;;8.83;;
7446;SDS011;3765;47.962;7.952;2022-11-15T06:30:08;16.03;;;7.53;;
7446;SDS011;3765;47.962;7.952;2022-11-15T06:32:38;14.83;;;5.13;;
7446;SDS011;3765;47.962;7.952;2022-11-15T06:35:07;13.37;;;5.60;;
7446;SDS011;3765;47.962;7.952;2022-11-15T06:37:35;14.10;;;5.43;;
7446;SDS011;3765;47.962;7.952;2022-11-15T06:40:04;11.03;;;4.40;;
7446;SDS011;3765;47.962;7.952;2022-11-15T06:42:33;12.87;;;4.50;;
7446;SDS011;3765;47.962;7.952;2022-11-15T06:45:01;13.30;;;5.60;;
7446;SDS011;3765;47.962;7.952;2022-11-15T06:47:30;10.60;;;4.17;;
7446;SDS011;3765;47.962;7.952;2022-11-15T06:49:59;11.83;;;5.10;;
7446;SDS011;3765;47.962;7.952;2022-11-15T06:52:28;10.40;;;4.27;;
7446;SDS011;3765;47.962;7.952;2022-11-15T06:54:58;10.97;;;4.37;;
7446;SDS011;3765;47.962;7.952;2022-11-15T06:57:26;14.03;;;5.50;;
7446;SDS011;3765;47.962;7.952;2022-11-15T06:59:55;10.97;;;5.10;;
7446;SDS011;3765;47.962;7.952;2022-11-15T07:02:23;15.87;;;8.33;;
7446;SDS011;3765;47.962;7.952;2022-11-15T07:04:51;18.13;;;9.80;;
7446;SDS011;3765;47.962;7.952;2022-11-15T07:07:21;21.50;;;11.70;;
7446;SDS011;3765;47.962;7.952;2022-11-15T07:09:49;16.23;;;9.00;;
7446;SDS011;3765;47.962;7.952;2022-11-15T07:12:18;15.10;;;8.67;;
7446;SDS011;3765;47.962;7.952;2022-11-15T07:14:46;18.50;;;7.70;;
7446;SDS011;3765;47.962;7.952;2022-11-15T07:17:14;12.87;;;6.60;;
7446;SDS011;3765;47.962;7.952;2022-11-15T07:19:42;18.07;;;7.97;;
7446;SDS011;3765;47.962;7.952;2022-11-15T07:22:11;14.60;;;6.60;;
7446;SDS011;3765;47.962;7.952;2022-11-15T07:24:40;14.67;;;5.90;;
7446;SDS011;3765;47.962;7.952;2022-11-15T07:27:08;13.87;;;5.90;;
7446;SDS011;3765;47.962;7.952;2022-11-15T07:29:37;12.47;;;4.40;;
7446;SDS011;3765;47.962;7.952;2022-11-15T07:32:06;13.23;;;5.20;;
7446;SDS011;3765;47.962;7.952;2022-11-15T07:34:34;11.90;;;5.53;;
7446;SDS011;3765;47.962;7.952;2022-11-15T07:37:02;19.00;;;8.43;;
7446;SDS011;3765;47.962;7.952;2022-11-15T07:39:30;19.50;;;9.20;;
7446;SDS011;3765;47.962;7.952;2022-11-15T07:42:00;16.63;;;8.63;;
7446;SDS011;3765;47.962;7.952;2022-11-15T07:44:54;18.77;;;9.20;;
7446;SDS011;3765;47.962;7.952;2022-11-15T07:47:22;21.60;;;9.53;;
7446;SDS011;3765;47.962;7.952;2022-11-15T07:49:50;24.10;;;10.37;;
7446;SDS011;3765;47.962;7.952;2022-11-15T07:52:18;20.73;;;4.90;;
7446;SDS011;3765;47.962;7.952;2022-11-15T07:54:46;14.83;;;5.97;;
7446;SDS011;3765;47.962;7.952;2022-11-15T07:57:16;16.43;;;9.10;;
7446;SDS011;3765;47.962;7.952;2022-11-15T07:59:44;12.60;;;4.87;;
7446;SDS011;3765;47.962;7.952;2022-11-15T08:02:12;11.83;;;5.37;;
7446;SDS011;3765;47.962;7.952;2022-11-15T08:04:42;9.77;;;4.47;;
7446;SDS011;3765;47.962;7.952;2022-11-15T08:07:11;22.70;;;4.80;;
7446;SDS011;3765;47.962;7.952;2022-11-15T08:09:39;11.63;;;4.20;;
7446;SDS011;3765;47.962;7.952;2022-11-15T08:12:07;16.23;;;5.00;;
7446;SDS011;3765;47.962;7.952;2022-11-15T08:14:37;15.07;;;6.43;;
7446;SDS011;3765;47.962;7.952;2022-11-15T08:17:05;16.73;;;6.20;;
7446;SDS011;3765;47.962;7.952;2022-11-15T08:19:34;14.27;;;6.40;;
7446;SDS011;3765;47.962;7.952;2022-11-15T08:22:02;18.17;;;7.40;;
7446;SDS011;3765;47.962;7.952;2022-11-15T08:24:30;12.17;;;4.97;;
7446;SDS011;3765;47.962;7.952;2022-11-15T08:26:58;12.13;;;5.37;;
7446;SDS011;3765;47.962;7.952;2022-11-15T08:29:26;11.27;;;4.90;;
7446;SDS011;3765;47.962;7.952;2022-11-15T08:31:56;11.67;;;5.00;;
7446;SDS011;3765;47.962;7.952;2022-11-15T08:34:24;19.23;;;5.27;;
7446;SDS011;3765;47.962;7.952;2022-11-15T08:36:52;13.97;;;5.67;;
7446;SDS011;3765;47.962;7.952;2022-11-15T08:39:20;14.80;;;6.30;;
7446;SDS011;3765;47.962;7.952;2022-11-15T08:41:48;34.33;;;15.10;;
7446;SDS011;3765;47.962;7.952;2022-11-15T08:44:16;26.83;;;13.73;;
7446;SDS011;3765;47.962;7.952;2022-11-15T08:46:45;20.97;;;10.40;;
7446;SDS011;3765;47.962;7.952;2022-11-15T08:49:15;11.93;;;4.90;;
7446;SDS011;3765;47.962;7.952;2022-11-15T08:51:43;13.30;;;6.30;;
7446;SDS011;3765;47.962;7.952;2022-11-15T08:54:12;16.23;;;7.40;;
7446;SDS011;3765;47.962;7.952;2022-11-15T08:56:40;26.33;;;13.13;;
7446;SDS011;3765;47.962;7.952;2022-11-15T08:59:08;11.10;;;4.90;;
7446;SDS011;3765;47.962;7.952;2022-11-15T09:01:36;13.90;;;5.90;;
7446;SDS011;3765;47.962;7.952;2022-11-15T09:04:05;12.60;;;4.90;;
7446;SDS011;3765;47.962;7.952;2022-11-15T09:06:34;11.07;;;4.90;;
7446;SDS011;3765;47.962;7.952;2022-11-15T09:09:08;12.23;;;5.37;;
7446;SDS011;3765;47.962;7.952;2022-11-15T09:11:36;14.70;;;5.37;;
7446;SDS011;3765;47.962;7.952;2022-11-15T09:14:04;13.80;;;6.53;;
7446;SDS011;3765;47.962;7.952;2022-11-15T09:16:32;11.13;;;4.87;;
7446;SDS011;3765;47.962;7.952;2022-11-15T09:19:00;12.20;;;4.40;;
7446;SDS011;3765;47.962;7.952;2022-11-15T09:21:38;10.90;;;4.20;;
7446;SDS011;3765;47.962;7.952;2022-11-15T09:24:06;26.67;;;5.03;;
7446;SDS011;3765;47.962;7.952;2022-11-15T09:26:34;10.20;;;4.00;;
7446;SDS011;3765;47.962;7.952;2022-11-15T09:29:03;13.47;;;5.63;;
7446;SDS011;3765;47.962;7.952;2022-11-15T09:31:31;15.50;;;6.70;;
7446;SDS011;3765;47.962;7.952;2022-11-15T09:33:59;21.50;;;10.80;;
7446;SDS011;3765;47.962;7.952;2022-11-15T09:36:27;21.30;;;9.53;;
7446;SDS011;3765;47.962;7.952;2022-11-15T09:38:58;21.17;;;8.80;;
7446;SDS011;3765;47.962;7.952;2022-11-15T09:41:39;20.93;;;11.90;;
7446;SDS011;3765;47.962;7.952;2022-11-15T09:44:38;33.43;;;16.53;;
7446;SDS011;3765;47.962;7.952;2022-11-15T09:47:24;29.90;;;17.33;;
7446;SDS011;3765;47.962;7.952;2022-11-15T09:50:09;21.10;;;9.67;;
7446;SDS011;3765;47.962;7.952;2022-11-15T09:52:41;17.83;;;8.53;;
7446;SDS011;3765;47.962;7.952;2022-11-15T09:55:14;14.23;;;6.87;;
7446;SDS011;3765;47.962;7.952;2022-11-15T09:57:49;12.53;;;5.83;;
7446;SDS011;3765;47.962;7.952;2022-11-15T10:00:25;15.87;;;7.40;;
7446;SDS011;3765;47.962;7.952;2022-11-15T10:03:14;17.87;;;8.97;;
7446;SDS011;3765;47.962;7.952;2022-11-15T10:05:45;18.00;;;9.00;;
7446;SDS011;3765;47.962;7.952;2022-11-15T10:08:24;25.53;;;13.93;;
7446;SDS011;3765;47.962;7.952;2022-11-15T10:11:05;20.07;;;9.13;;
7446;SDS011;3765;47.962;7.952;2022-11-15T10:13:56;17.00;;;9.50;;
7446;SDS011;3765;47.962;7.952;2022-11-15T10:16:32;16.77;;;10.20;;
7446;SDS011;3765;47.962;7.952;2022-11-15T10:19:40;27.90;;;9.93;;
7446;SDS011;3765;47.962;7.952;2022-11-15T10:22:28;18.03;;;8.73;;
7446;SDS011;3765;47.962;7.952;2022-11-15T10:25:01;13.90;;;8.10;;
7446;SDS011;3765;47.962;7.952;2022-11-15T10:27:42;11.73;;;6.90;;
7446;SDS011;3765;47.962;7.952;2022-11-15T10:30:14;15.23;;;8.20;;
7446;SDS011;3765;47.962;7.952;2022-11-15T10:32:44;19.60;;;11.80;;
7446;SDS011;3765;47.962;7.952;2022-11-15T10:35:21;31.77;;;13.73;;
7446;SDS011;3765;47.962;7.952;2022-11-15T10:37:52;25.13;;;10.97;;
7446;SDS011;3765;47.962;7.952;2022-11-15T10:40:34;10.80;;;4.80;;
7446;SDS011;3765;47.962;7.952;2022-11-15T10:43:14;6.77;;;2.57;;
7446;SDS011;3765;47.962;7.952;2022-11-15T10:45:44;8.20;;;3.50;;
7446;SDS011;3765;47.962;7.952;2022-11-15T10:48:21;5.10;;;1.23;;
7446;SDS011;3765;47.962;7.952;2022-11-15T10:50:51;8.00;;;3.70;;
7446;SDS011;3765;47.962;7.952;2022-11-15T10:53:26;5.00;;;1.27;;
7446;SDS011;3765;47.962;7.952;2022-11-15T10:55:59;5.30;;;1.20;;
7446;SDS011;3765;47.962;7.952;2022-11-15T10:58:33;5.47;;;1.10;;
7446;SDS011;3765;47.962;7.952;2022-11-15T11:01:10;10.40;;;2.47;;
7446;SDS011;3765;47.962;7.952;2022-11-15T11:03:41;5.00;;;1.30;;
7446;SDS011;3765;47.962;7.952;2022-11-15T11:06:11;7.87;;;1.40;;
7446;SDS011;3765;47.962;7.952;2022-11-15T11:08:52;9.30;;;1.20;;
7446;SDS011;3765;47.962;7.952;2022-11-15T11:11:25;6.37;;;1.50;;
7446;SDS011;3765;47.962;7.952;2022-11-15T11:14:13;11.07;;;4.50;;
7446;SDS011;3765;47.962;7.952;2022-11-15T11:16:48;8.43;;;1.37;;
7446;SDS011;3765;47.962;7.952;2022-11-15T11:19:28;5.90;;;1.10;;
7446;SDS011;3765;47.962;7.952;2022-11-15T11:22:12;6.10;;;1.47;;
7446;SDS011;3765;47.962;7.952;2022-11-15T11:24:48;7.47;;;1.93;;
7446;SDS011;3765;47.962;7.952;2022-11-15T11:27:31;5.67;;;1.20;;
7446;SDS011;3765;47.962;7.952;2022-11-15T11:30:08;6.13;;;1.50;;
7446;SDS011;3765;47.962;7.952;2022-11-15T11:32:42;6.80;;;1.57;;
7446;SDS011;3765;47.962;7.952;2022-11-15T11:35:23;6.40;;;2.03;;
7446;SDS011;3765;47.962;7.952;2022-11-15T11:38:00;6.73;;;2.67;;
7446;SDS011;3765;47.962;7.952;2022-11-15T11:40:43;7.00;;;2.60;;
7446;SDS011;3765;47.962;7.952;2022-11-15T11:43:30;8.23;;;2.47;;
7446;SDS011;3765;47.962;7.952;2022-11-15T11:46:09;9.33;;;4.97;;
7446;SDS011;3765;47.962;7.952;2022-11-15T11:48:45;7.07;;;1.93;;
7446;SDS011;3765;47.962;7.952;2022-11-15T11:51:17;5.73;;;1.70;;
7446;SDS011;3765;47.962;7.952;2022-11-15T11:53:52;5.20;;;1.30;;
7446;SDS011;3765;47.962;7.952;2022-11-15T11:56:26;6.03;;;1.30;;
7446;SDS011;3765;47.962;7.952;2022-11-15T11:58:57;5.10;;;1.30;;
7446;SDS011;3765;47.962;7.952;2022-11-15T12:01:35;4.70;;;1.13;;
7446;SDS011;3765;47.962;7.952;2022-11-15T12:04:09;6.10;;;1.30;;
7446;SDS011;3765;47.962;7.952;2022-11-15T12:06:42;5.03;;;1.20;;
7446;SDS011;3765;47.962;7.952;2022-11-15T12:09:17;5.77;;;1.43;;
7446;SDS011;3765;47.962;7.952;2022-11-15T12:11:53;5.70;;;1.40;;
7446;SDS011;3765;47.962;7.952;2022-11-15T12:14:36;4.50;;;1.00;;
7446;SDS011;3765;47.962;7.952;2022-11-15T12:17:11;5.07;;;1.20;;
7446;SDS011;3765;47.962;7.952;2022-11-15T12:19:40;6.30;;;1.40;;
7446;SDS011;3765;47.962;7.952;2022-11-15T12:22:10;5.47;;;1.27;;
7446;SDS011;3765;47.962;7.952;2022-11-15T12:24:46;7.63;;;1.70;;
7446;SDS011;3765;47.962;7.952;2022-11-15T12:27:26;7.30;;;2.70;;
7446;SDS011;3765;47.962;7.952;2022-11-15T12:30:02;6.97;;;2.47;;
7446;SDS011;3765;47.962;7.952;2022-11-15T12:32:38;9.40;;;4.17;;
7446;SDS011;3765;47.962;7.952;2022-11-15T12:35:21;9.50;;;2.97;;
7446;SDS011;3765;47.962;7.952;2022-11-15T12:37:53;5.97;;;2.10;;
7446;SDS011;3765;47.962;7.952;2022-11-15T12:40:31;6.10;;;2.00;;
7446;SDS011;3765;47.962;7.952;2022-11-15T12:46:19;9.23;;;1.57;;
7446;SDS011;3765;47.962;7.952;2022-11-15T12:48:54;7.40;;;2.60;;
7446;SDS011;3765;47.962;7.952;2022-11-15T12:57:31;8.10;;;2.40;;
7446;SDS011;3765;47.962;7.952;2022-11-15T13:00:02;6.80;;;2.70;;
7446;SDS011;3765;47.962;7.952;2022-11-15T13:02:51;10.40;;;3.20;;
7446;SDS011;3765;47.962;7.952;2022-11-15T13:05:56;6.13;;;2.13;;
7446;SDS011;3765;47.962;7.952;2022-11-15T13:08:37;6.03;;;1.73;;
7446;SDS011;3765;47.962;7.952;2022-11-15T13:17:31;13.43;;;3.83;;
7446;SDS011;3765;47.962;7.952;2022-11-15T13:20:22;7.17;;;2.27;;
7446;SDS011;3765;47.962;7.952;2022-11-15T13:22:59;24.90;;;13.90;;
7446;SDS011;3765;47.962;7.952;2022-11-15T13:28:42;7.77;;;1.40;;
7446;SDS011;3765;47.962;7.952;2022-11-15T13:31:15;5.90;;;1.33;;
7446;SDS011;3765;47.962;7.952;2022-11-15T13:33:50;5.63;;;1.47;;
7446;SDS011;3765;47.962;7.952;2022-11-15T13:36:21;5.63;;;1.20;;
7446;SDS011;3765;47.962;7.952;2022-11-15T13:38:56;5.90;;;1.20;;
7446;SDS011;3765;47.962;7.952;2022-11-15T13:41:27;10.60;;;1.70;;
7446;SDS011;3765;47.962;7.952;2022-11-15T13:43:57;8.77;;;1.90;;
7446;SDS011;3765;47.962;7.952;2022-11-15T13:46:26;9.57;;;2.97;;
7446;SDS011;3765;47.962;7.952;2022-11-15T13:48:56;6.90;;;2.60;;
7446;SDS011;3765;47.962;7.952;2022-11-15T13:51:29;7.27;;;3.20;;
7446;SDS011;3765;47.962;7.952;2022-11-15T13:54:07;23.40;;;14.47;;
7446;SDS011;3765;47.962;7.952;2022-11-15T13:56:45;7.37;;;3.13;;
7446;SDS011;3765;47.962;7.952;2022-11-15T13:59:18;22.13;;;4.37;;
7446;SDS011;3765;47.962;7.952;2022-11-15T14:01:51;50.93;;;9.10;;
7446;SDS011;3765;47.962;7.952;2022-11-15T14:04:22;112.50;;;18.67;;
7446;SDS011;3765;47.962;7.952;2022-11-15T14:06:56;106.33;;;20.60;;
7446;SDS011;3765;47.962;7.952;2022-11-15T14:09:33;44.43;;;11.00;;
7446;SDS011;3765;47.962;7.952;2022-11-15T14:14:55;26.27;;;15.87;;
7446;SDS011;3765;47.962;7.952;2022-11-15T14:17:33;23.80;;;15.10;;
7446;SDS011;3765;47.962;7.952;2022-11-15T14:20:19;19.90;;;12.17;;
7446;SDS011;3765;47.962;7.952;2022-11-15T14:22:54;9.30;;;3.40;;
7446;SDS011;3765;47.962;7.952;2022-11-15T14:25:25;11.60;;;3.50;;
7446;SDS011;3765;47.962;7.952;2022-11-15T14:28:08;12.60;;;3.43;;
7446;SDS011;3765;47.962;7.952;2022-11-15T14:30:54;10.40;;;3.30;;
7446;SDS011;3765;47.962;7.952;2022-11-15T14:33:25;7.30;;;2.37;;
7446;SDS011;3765;47.962;7.952;2022-11-15T14:35:56;10.87;;;2.40;;
7446;SDS011;3765;47.962;7.952;2022-11-15T14:38:26;10.70;;;3.00;;
7446;SDS011;3765;47.962;7.952;2022-11-15T14:40:55;8.90;;;3.83;;
7446;SDS011;3765;47.962;7.952;2022-11-15T14:43:24;8.90;;;2.80;;
7446;SDS011;3765;47.962;7.952;2022-11-15T14:45:53;6.50;;;2.00;;
7446;SDS011;3765;47.962;7.952;2022-11-15T14:48:30;10.63;;;2.97;;
7446;SDS011;3765;47.962;7.952;2022-11-15T14:51:26;9.00;;;2.47;;
7446;SDS011;3765;47.962;7.952;2022-11-15T14:53:54;13.27;;;4.17;;
7446;SDS011;3765;47.962;7.952;2022-11-15T14:56:23;10.83;;;3.77;;
7446;SDS011;3765;47.962;7.952;2022-11-15T14:58:52;14.73;;;4.30;;
7446;SDS011;3765;47.962;7.952;2022-11-15T15:01:24;8.80;;;3.40;;
7446;SDS011;3765;47.962;7.952;2022-11-15T15:03:53;9.73;;;3.30;;
7446;SDS011;3765;47.962;7.952;2022-11-15T15:06:24;8.63;;;3.17;;
7446;SDS011;3765;47.962;7.952;2022-11-15T15:08:54;8.40;;;3.07;;
7446;SDS011;3765;47.962;7.952;2022-11-15T15:11:24;8.97;;;3.47;;
7446;SDS011;3765;47.962;7.952;2022-11-15T15:13:54;15.93;;;7.50;;
7446;SDS011;3765;47.962;7.952;2022-11-15T15:16:24;10.13;;;5.10;;
7446;SDS011;3765;47.962;7.952;2022-11-15T15:18:52;9.17;;;3.67;;
7446;SDS011;3765;47.962;7.952;2022-11-15T15:21:21;8.77;;;3.93;;
7446;SDS011;3765;47.962;7.952;2022-11-15T15:23:51;9.00;;;3.57;;
7446;SDS011;3765;47.962;7.952;2022-11-15T15:26:20;11.30;;;4.70;;
7446;SDS011;3765;47.962;7.952;2022-11-15T15:28:50;20.80;;;7.20;;
7446;SDS011;3765;47.962;7.952;2022-11-15T15:31:19;16.00;;;6.17;;
7446;SDS011;3765;47.962;7.952;2022-11-15T15:33:47;19.40;;;5.63;;
7446;SDS011;3765;47.962;7.952;2022-11-15T15:36:17;14.20;;;5.70;;
7446;SDS011;3765;47.962;7.952;2022-11-15T15:38:46;19.83;;;5.40;;
7446;SDS011;3765;47.962;7.952;2022-11-15T15:41:14;13.00;;;4.67;;
7446;SDS011;3765;47.962;7.952;2022-11-15T15:43:43;17.47;;;5.47;;
7446;SDS011;3765;47.962;7.952;2022-11-15T15:46:13;16.50;;;6.50;;
7446;SDS011;3765;47.962;7.952;2022-11-15T15:48:42;24.53;;;12.93;;
7446;SDS011;3765;47.962;7.952;2022-11-15T15:51:11;22.37;;;14.37;;
7446;SDS011;3765;47.962;7.952;2022-11-15T15:53:46;23.43;;;15.10;;
7446;SDS011;3765;47.962;7.952;2022-11-15T15:56:14;29.33;;;14.93;;
7446;SDS011;3765;47.962;7.952;2022-11-15T15:58:43;25.47;;;17.07;;
7446;SDS011;3765;47.962;7.952;2022-11-15T16:01:12;13.00;;;7.30;;
7446;SDS011;3765;47.962;7.952;2022-11-15T16:03:40;13.57;;;3.60;;
7446;SDS011;3765;47.962;7.952;2022-11-15T16:09:05;9.03;;;3.80;;